Time;durP1;ratioP1;P1;durP2;ratioP2;P2;SDS_P1;SDS_P2;PMS_P1;PMS_P2;Temp;Humidity;BMP_temperature;BMP_pressure;BME280_temperature;BME280_humidity;BME280_pressure;Samples;Min_cycle;Max_cycle;Signal;HPM_P1;HPM_P2
2022/08/12 00:44:15;;;;;;;;;;;;;;;22.10;42.62;102072.22;5025224;28;19928;-59
2022/08/12 00:46:48;;;;;;;;;;;;;;;22.11;42.54;102073.94;5022464;28;19921;-57
2022/08/12 00:49:13;;;;;;;;;;;;;;;22.08;42.62;102081.25;5024157;28;20450;-56
2022/08/12 00:54:23;;;;;;;;;;;;;;;22.06;42.54;102074.34;5025610;28;20315;-58
2022/08/12 00:56:49;;;;;;;;;;;;;;;22.02;42.77;102075.56;5026943;28;20392;-59
2022/08/12 00:59:15;;;;;;;;;;;;;;;21.97;42.75;102075.13;5017610;28;20399;-64
2022/08/12 01:01:43;;;;;;;;;;;;;;;21.90;42.64;102072.97;5029004;28;20019;-56
2022/08/12 01:12:25;;;;;;;;;;;;;;;21.62;43.31;102088.69;5016441;28;23272;-56
2022/08/12 01:14:52;;;;;;;;;;;;;;;21.60;43.04;102079.94;5024148;28;19961;-58
2022/08/12 01:17:18;;;;;;;;;;;;;;;21.55;43.19;102082.16;5024341;28;20020;-56
2022/08/12 01:19:46;;;;;;;;;;;;;;;21.49;43.37;102069.25;5026223;28;19929;-57
2022/08/12 01:22:17;;;;;;;;;;;;;;;21.45;43.55;102062.44;5019363;28;19936;-59
2022/08/12 01:24:45;;;;;;;;;;;;;;;21.46;43.80;102074.88;5029901;28;19916;-56
2022/08/12 01:27:13;;;;;;;;;;;;;;;21.47;43.44;102071.22;5024356;28;20024;-63
2022/08/12 01:29:41;;;;;;;;;;;;;;;21.48;43.50;102073.75;5017633;28;19969;-60
2022/08/12 01:32:09;;;;;;;;;;;;;;;21.48;43.33;102068.38;5027456;28;19925;-63
2022/08/12 01:34:37;;;;;;;;;;;;;;;21.48;43.59;102067.56;5024706;28;19929;-59
2022/08/12 01:37:03;;;;;;;;;;;;;;;21.48;43.52;102070.22;5027972;28;19936;-57
2022/08/12 01:39:30;;;;;;;;;;;;;;;21.45;43.88;102082.06;5026451;28;19924;-54
2022/08/12 01:42:00;;;;;;;;;;;;;;;21.41;43.79;102077.94;5024418;28;20347;-54
2022/08/12 01:44:27;;;;;;;;;;;;;;;21.37;43.78;102079.16;5018351;28;20066;-55
2022/08/12 01:47:02;;;;;;;;;;;;;;;21.34;43.91;102063.34;5019982;28;19952;-54
2022/08/12 01:49:41;;;;;;;;;;;;;;;21.35;43.94;102074.91;5025903;28;19917;-54
2022/08/12 01:52:14;;;;;;;;;;;;;;;21.33;43.94;102067.00;5025023;28;19917;-61
2022/08/12 01:54:43;;;;;;;;;;;;;;;21.30;44.30;102080.66;5018085;28;21947;-58
2022/08/12 01:57:23;;;;;;;;;;;;;;;21.27;44.10;102067.50;5017754;28;19940;-55
2022/08/12 01:59:58;;;;;;;;;;;;;;;21.25;44.43;102082.84;5016446;28;19921;-54
2022/08/12 02:02:31;;;;;;;;;;;;;;;21.22;44.33;102073.25;5020438;28;19933;-61
2022/08/12 02:13:42;;;;;;;;;;;;;;;21.18;44.61;102063.78;5019873;28;19931;-56
2022/08/12 02:16:12;;;;;;;;;;;;;;;21.16;44.55;102071.06;5026022;28;20016;-58
2022/08/12 02:18:37;;;;;;;;;;;;;;;21.12;44.64;102070.47;5024865;28;20408;-60
2022/08/12 02:21:05;;;;;;;;;;;;;;;21.10;44.76;102071.59;5020596;28;19924;-54
2022/08/12 02:23:33;;;;;;;;;;;;;;;21.06;44.55;102065.63;5024691;28;20441;-54
2022/08/12 02:26:02;;;;;;;;;;;;;;;21.06;44.68;102060.25;5025466;28;19964;-57
2022/08/12 02:28:28;;;;;;;;;;;;;;;21.12;44.92;102061.59;5024601;28;19975;-64
2022/08/12 02:30:55;;;;;;;;;;;;;;;21.13;44.91;102068.63;5021947;28;19960;-63
2022/08/12 02:33:21;;;;;;;;;;;;;;;21.11;45.06;102068.78;5025218;28;19963;-58
2022/08/12 02:35:47;;;;;;;;;;;;;;;21.13;44.94;102060.59;5031884;28;19944;-62
2022/08/12 02:38:12;;;;;;;;;;;;;;;21.13;45.11;102068.63;5025196;28;19933;-59
2022/08/12 02:40:39;;;;;;;;;;;;;;;21.13;45.10;102072.19;5016829;28;20328;-56
2022/08/12 02:43:13;;;;;;;;;;;;;;;21.13;45.02;102057.94;5021620;28;19932;-54
2022/08/12 02:45:38;;;;;;;;;;;;;;;21.14;45.18;102060.50;5019717;28;20106;-58
2022/08/12 02:48:05;;;;;;;;;;;;;;;21.17;45.09;102062.06;5024471;28;20014;-54
2022/08/12 02:50:32;;;;;;;;;;;;;;;21.22;44.59;102059.88;5027820;28;19925;-59
2022/08/12 02:52:58;;;;;;;;;;;;;;;21.19;45.03;102054.75;5024037;28;19978;-55
2022/08/12 02:55:26;;;;;;;;;;;;;;;21.16;45.17;102052.34;5019824;28;19916;-57
2022/08/12 02:57:52;;;;;;;;;;;;;;;21.12;45.12;102058.91;5021437;28;19925;-56
2022/08/12 03:00:17;;;;;;;;;;;;;;;21.04;45.28;102056.03;5027334;28;19917;-55
2022/08/12 03:02:45;;;;;;;;;;;;;;;20.98;45.41;102063.56;5016134;28;19937;-57
2022/08/12 03:05:12;;;;;;;;;;;;;;;20.96;45.35;102067.34;5016940;28;19917;-57
2022/08/12 03:07:44;;;;;;;;;;;;;;;20.94;45.32;102064.81;5027115;28;19932;-55
2022/08/12 03:10:10;;;;;;;;;;;;;;;20.93;45.45;102065.78;5022047;28;20002;-63
2022/08/12 03:12:40;;;;;;;;;;;;;;;20.97;45.60;102066.38;5022762;28;19951;-57
2022/08/12 03:15:10;;;;;;;;;;;;;;;21.03;45.17;102063.19;5025774;28;19987;-63
2022/08/12 03:17:54;;;;;;;;;;;;;;;21.08;45.35;102062.84;5017446;28;19928;-58
2022/08/12 03:20:21;;;;;;;;;;;;;;;21.10;44.98;102060.88;5019280;28;19917;-59
2022/08/12 03:22:47;;;;;;;;;;;;;;;21.10;45.04;102066.25;5022499;28;19921;-63
2022/08/12 03:25:26;;;;;;;;;;;;;;;21.10;45.41;102059.03;5026259;28;20334;-63
2022/08/12 03:27:55;;;;;;;;;;;;;;;21.07;45.31;102066.47;5024565;28;20001;-58
2022/08/12 03:30:25;;;;;;;;;;;;;;;21.02;45.20;102059.69;5007302;28;19921;-62
2022/08/12 03:32:51;;;;;;;;;;;;;;;20.98;45.29;102074.28;5019676;28;19924;-60
2022/08/12 03:35:17;;;;;;;;;;;;;;;20.93;45.28;102076.50;5030326;28;19928;-53
2022/08/12 03:37:43;;;;;;;;;;;;;;;20.88;45.63;102067.97;5029357;28;20035;-59
2022/08/12 03:41:32;;;;;;;;;;;;;;;20.84;45.69;102077.22;5027530;28;20011;-59
2022/08/12 04:02:06;;;;;;;;;;;;;;;20.44;46.36;102083.03;5024837;28;19972;-55
2022/08/12 04:04:33;;;;;;;;;;;;;;;20.40;46.36;102080.59;5032321;28;19924;-56
2022/08/12 04:07:08;;;;;;;;;;;;;;;20.35;46.58;102085.44;5030598;28;19921;-58
2022/08/12 04:09:34;;;;;;;;;;;;;;;20.34;46.73;102090.94;5033991;28;19921;-56
2022/08/12 04:14:43;;;;;;;;;;;;;;;20.31;46.70;102097.38;5030678;28;19947;-58
2022/08/12 04:17:10;;;;;;;;;;;;;;;20.33;46.58;102099.91;5026689;28;20404;-60
2022/08/12 04:19:36;;;;;;;;;;;;;;;20.31;46.84;102100.06;5025591;28;19921;-55
2022/08/12 04:22:02;;;;;;;;;;;;;;;20.30;46.60;102095.66;5027702;28;19933;-54
2022/08/12 04:24:27;;;;;;;;;;;;;;;20.30;46.70;102090.31;5025462;28;19921;-56
2022/08/12 04:26:53;;;;;;;;;;;;;;;20.28;46.75;102097.59;5014007;28;20027;-56
2022/08/12 04:29:19;;;;;;;;;;;;;;;20.27;46.94;102098.56;5016179;28;20525;-58
2022/08/12 04:31:44;;;;;;;;;;;;;;;20.28;46.98;102094.06;5018141;28;20401;-59
2022/08/12 04:34:13;;;;;;;;;;;;;;;20.29;46.78;102091.28;5022320;28;19997;-59
2022/08/12 04:36:39;;;;;;;;;;;;;;;20.30;46.77;102090.31;5019732;28;19928;-57
2022/08/12 04:39:06;;;;;;;;;;;;;;;20.30;46.93;102089.47;5018521;28;19921;-57
2022/08/12 04:41:32;;;;;;;;;;;;;;;20.32;46.79;102099.09;5021111;28;20403;-55
2022/08/12 04:43:57;;;;;;;;;;;;;;;20.32;46.82;102093.75;5022963;28;19921;-62
2022/08/12 04:46:23;;;;;;;;;;;;;;;20.33;46.82;102092.75;5026597;28;19921;-57
2022/08/12 04:48:49;;;;;;;;;;;;;;;20.32;46.91;102093.75;5026956;28;20522;-58
2022/08/12 04:51:14;;;;;;;;;;;;;;;20.31;46.87;102097.38;5026210;28;19932;-58
2022/08/12 04:53:40;;;;;;;;;;;;;;;20.33;47.11;102092.75;5025661;28;19924;-58
2022/08/12 04:56:06;;;;;;;;;;;;;;;20.35;46.85;102096.16;5025639;28;20382;-58
2022/08/12 04:58:33;;;;;;;;;;;;;;;20.36;47.14;102092.50;5020794;28;20115;-55
2022/08/12 05:00:58;;;;;;;;;;;;;;;20.38;47.10;102093.25;5019399;28;19948;-57
2022/08/12 05:03:24;;;;;;;;;;;;;;;20.40;47.03;102093.97;5019115;28;20307;-56
2022/08/12 05:05:49;;;;;;;;;;;;;;;20.41;46.78;102094.84;5024405;28;19942;-58
2022/08/12 05:08:15;;;;;;;;;;;;;;;20.41;47.12;102093.00;5025183;28;20032;-63
2022/08/12 05:10:45;;;;;;;;;;;;;;;20.46;46.82;102094.47;5023785;28;19925;-57
2022/08/12 05:13:19;;;;;;;;;;;;;;;20.48;46.71;102098.72;5024758;28;19924;-56
2022/08/12 05:15:44;;;;;;;;;;;;;;;20.50;46.75;102093.25;5019195;28;19975;-65
2022/08/12 05:18:10;;;;;;;;;;;;;;;20.52;47.00;102104.66;5015271;28;19921;-63
2022/08/12 05:20:36;;;;;;;;;;;;;;;20.53;46.74;102104.56;5018314;28;20304;-58
2022/08/12 05:23:09;;;;;;;;;;;;;;;20.55;46.97;102097.28;5022804;28;19925;-54
2022/08/12 05:25:35;;;;;;;;;;;;;;;20.59;47.04;102105.91;5017309;28;20462;-54
2022/08/12 05:28:01;;;;;;;;;;;;;;;20.61;46.91;102108.44;5015950;28;19933;-61
2022/08/12 05:30:27;;;;;;;;;;;;;;;20.62;46.57;102102.13;5013676;28;19929;-59
2022/08/12 05:32:54;;;;;;;;;;;;;;;20.65;46.95;102104.56;5015358;28;20023;-62
2022/08/12 05:35:19;;;;;;;;;;;;;;;20.66;46.83;102096.41;5028356;28;20012;-53
2022/08/12 05:37:45;;;;;;;;;;;;;;;20.67;46.81;102098.09;5010319;28;25600;-60
2022/08/12 05:40:10;;;;;;;;;;;;;;;20.70;46.74;102105.06;5016069;28;19926;-57
2022/08/12 05:42:35;;;;;;;;;;;;;;;20.71;46.43;102104.91;5023187;28;20382;-54
2022/08/12 05:45:01;;;;;;;;;;;;;;;20.76;46.72;102106.41;5027962;28;19921;-59
2022/08/12 05:47:27;;;;;;;;;;;;;;;20.79;46.71;102107.00;5031492;28;19934;-57
2022/08/12 05:49:53;;;;;;;;;;;;;;;20.83;46.71;102102.25;5027509;28;20056;-56
2022/08/12 05:52:18;;;;;;;;;;;;;;;20.87;46.45;102103.72;5023658;28;20071;-58
2022/08/12 05:54:44;;;;;;;;;;;;;;;20.92;46.34;102101.53;5023691;28;19928;-57
2022/08/12 05:57:11;;;;;;;;;;;;;;;20.97;46.55;102102.00;5032431;28;19925;-55
2022/08/12 05:59:40;;;;;;;;;;;;;;;21.03;46.39;102100.66;5026095;28;19928;-56
2022/08/12 06:02:08;;;;;;;;;;;;;;;21.09;46.23;102107.34;5034627;28;19929;-57
2022/08/12 06:04:34;;;;;;;;;;;;;;;21.12;46.00;102099.91;5031265;28;19925;-60
2022/08/12 06:07:00;;;;;;;;;;;;;;;21.16;45.79;102103.19;5055060;22;19982;-54
2022/08/12 06:09:27;;;;;;;;;;;;;;;21.20;46.09;102099.28;5050613;28;19963;-55
2022/08/12 06:11:52;;;;;;;;;;;;;;;21.23;45.69;102107.06;5045515;28;19917;-53
2022/08/12 06:14:18;;;;;;;;;;;;;;;21.26;45.68;102105.97;5049323;28;19923;-57
2022/08/12 06:16:45;;;;;;;;;;;;;;;21.29;45.58;102095.84;5035697;28;19921;-52
2022/08/12 06:19:10;;;;;;;;;;;;;;;21.35;45.52;102109.72;5028454;28;19921;-55
2022/08/12 06:21:36;;;;;;;;;;;;;;;21.39;45.57;102109.34;5031592;28;19939;-53
2022/08/12 06:24:02;;;;;;;;;;;;;;;21.43;45.26;102109.91;5026602;28;19933;-60
2022/08/12 06:26:27;;;;;;;;;;;;;;;21.46;45.34;102109.66;5024701;28;19978;-52
2022/08/12 06:28:53;;;;;;;;;;;;;;;21.50;45.31;102105.78;5025982;28;19925;-54
2022/08/12 06:31:18;;;;;;;;;;;;;;;21.53;45.46;102108.19;5030243;28;20017;-52
2022/08/12 06:33:46;;;;;;;;;;;;;;;21.58;45.20;102108.66;5026428;28;20412;-53
2022/08/12 06:36:12;;;;;;;;;;;;;;;21.62;45.00;102112.81;5026661;28;20399;-57
2022/08/12 06:38:38;;;;;;;;;;;;;;;21.65;45.00;102114.38;5031933;28;20418;-53
2022/08/12 06:43:50;;;;;;;;;;;;;;;21.76;44.79;102114.34;5026602;28;19928;-59
2022/08/12 06:46:16;;;;;;;;;;;;;;;21.82;44.96;102114.78;5028258;28;19923;-56
2022/08/12 06:48:44;;;;;;;;;;;;;;;21.87;44.71;102124.13;5028183;28;19917;-55
2022/08/12 06:51:10;;;;;;;;;;;;;;;21.92;44.72;102111.22;5029246;28;19964;-58
2022/08/12 06:53:35;;;;;;;;;;;;;;;21.99;44.38;102124.09;5026377;28;19921;-56
2022/08/12 06:56:01;;;;;;;;;;;;;;;22.04;44.72;102119.16;5029951;28;19917;-52
2022/08/12 06:58:27;;;;;;;;;;;;;;;22.09;44.47;102116.97;5029182;28;19962;-52
2022/08/12 07:00:54;;;;;;;;;;;;;;;22.13;44.47;102123.75;5022207;28;20269;-53
2022/08/12 07:03:21;;;;;;;;;;;;;;;22.19;44.34;102123.22;5032781;28;19974;-56
2022/08/12 07:05:46;;;;;;;;;;;;;;;22.23;43.98;102124.66;5027495;28;19987;-54
2022/08/12 07:08:12;;;;;;;;;;;;;;;22.28;44.20;102121.59;5028323;28;21028;-55
2022/08/12 07:10:56;;;;;;;;;;;;;;;22.32;44.15;102116.78;5030527;28;20331;-55
2022/08/12 07:13:23;;;;;;;;;;;;;;;22.36;43.83;102116.44;5027540;28;20016;-52
2022/08/12 07:15:55;;;;;;;;;;;;;;;22.39;44.02;102118.81;5026381;28;20396;-52
2022/08/12 07:18:22;;;;;;;;;;;;;;;22.44;43.90;102121.16;5026453;28;20403;-53
2022/08/12 07:20:47;;;;;;;;;;;;;;;22.47;43.90;102110.13;5030115;28;19987;-53
2022/08/12 07:23:14;;;;;;;;;;;;;;;22.53;43.81;102109.63;5029208;28;19921;-59
2022/08/12 07:25:39;;;;;;;;;;;;;;;22.58;43.72;102116.41;5033641;28;19921;-53
2022/08/12 07:28:07;;;;;;;;;;;;;;;22.63;43.96;102114.16;5033940;28;20351;-55
2022/08/12 07:30:33;;;;;;;;;;;;;;;22.67;43.72;102115.59;5032851;28;19996;-57
2022/08/12 07:33:00;;;;;;;;;;;;;;;22.73;43.41;102116.88;5032118;28;20044;-56
2022/08/12 07:35:26;;;;;;;;;;;;;;;22.78;43.34;102117.34;5031929;28;19917;-52
2022/08/12 07:37:52;;;;;;;;;;;;;;;22.81;43.45;102125.13;5033403;28;19984;-52
2022/08/12 07:40:18;;;;;;;;;;;;;;;22.87;43.21;102126.41;5032361;28;20396;-53
2022/08/12 07:42:44;;;;;;;;;;;;;;;22.91;43.04;102128.69;5031417;28;20455;-53
2022/08/12 07:45:10;;;;;;;;;;;;;;;22.96;43.29;102125.56;4999917;28;19925;-54
2022/08/12 07:47:36;;;;;;;;;;;;;;;22.99;43.06;102125.31;5033233;28;19932;-56
2022/08/12 07:50:07;;;;;;;;;;;;;;;23.02;43.05;102130.41;5033212;28;19917;-52
2022/08/12 07:52:34;;;;;;;;;;;;;;;23.08;43.19;102118.28;5034815;28;19917;-56
2022/08/12 07:54:59;;;;;;;;;;;;;;;23.11;42.77;102121.53;5033323;28;19928;-56
2022/08/12 07:57:25;;;;;;;;;;;;;;;23.14;43.09;102118.56;5028852;28;19917;-54
2022/08/12 07:59:50;;;;;;;;;;;;;;;23.20;42.80;102122.56;5030221;28;20008;-56
2022/08/12 08:02:15;;;;;;;;;;;;;;;23.25;42.79;102122.13;5031067;28;19968;-57
2022/08/12 08:04:56;;;;;;;;;;;;;;;23.29;42.50;102126.25;5031842;28;19917;-56
2022/08/12 08:07:22;;;;;;;;;;;;;;;23.35;42.73;102117.66;5029551;28;19933;-57
2022/08/12 08:09:47;;;;;;;;;;;;;;;23.40;42.30;102117.22;5027729;28;19944;-57
2022/08/12 08:14:57;;;;;;;;;;;;;;;23.51;41.96;102113.56;5034583;28;19932;-52
2022/08/12 08:17:24;;;;;;;;;;;;;;;23.55;41.93;102110.44;5034064;28;19928;-52
2022/08/12 08:19:51;;;;;;;;;;;;;;;23.60;41.79;102112.72;5036829;28;19928;-53
2022/08/12 08:22:20;;;;;;;;;;;;;;;23.66;41.81;102106.78;5033426;28;19965;-55
2022/08/12 08:24:46;;;;;;;;;;;;;;;23.70;41.71;102110.03;5034449;28;19924;-55
2022/08/12 08:27:11;;;;;;;;;;;;;;;23.75;41.85;102102.34;5030421;28;20375;-52
2022/08/12 08:29:36;;;;;;;;;;;;;;;23.81;41.94;102095.59;5030950;28;19921;-53
2022/08/12 08:32:06;;;;;;;;;;;;;;;23.85;41.81;102102.34;5031991;28;20300;-55
2022/08/12 08:34:32;;;;;;;;;;;;;;;23.90;41.50;102105.47;5030157;28;19963;-53
2022/08/12 08:36:57;;;;;;;;;;;;;;;23.93;41.72;102099.81;5029237;28;19943;-54
2022/08/12 08:39:26;;;;;;;;;;;;;;;23.97;41.41;102095.88;5032609;28;19924;-55
2022/08/12 08:44:36;;;;;;;;;;;;;;;24.09;41.27;102106.47;5030487;28;19923;-54
2022/08/12 08:47:04;;;;;;;;;;;;;;;24.13;41.12;102097.97;5034107;28;20603;-55
2022/08/12 08:49:29;;;;;;;;;;;;;;;24.18;40.94;102101.06;5030524;28;19917;-53
2022/08/12 08:51:55;;;;;;;;;;;;;;;24.24;40.85;102102.31;5026896;28;20277;-57
2022/08/12 08:54:20;;;;;;;;;;;;;;;24.30;40.79;102092.81;5030954;28;20572;-57
2022/08/12 08:56:48;;;;;;;;;;;;;;;24.34;40.31;102092.38;5029649;28;19917;-53
2022/08/12 08:59:14;;;;;;;;;;;;;;;24.40;40.17;102090.94;5026934;28;20300;-59
2022/08/12 09:01:39;;;;;;;;;;;;;;;24.44;39.68;102088.78;5030541;28;19917;-53
2022/08/12 09:04:06;;;;;;;;;;;;;;;24.50;39.54;102088.22;5030138;28;19924;-52
2022/08/12 09:06:31;;;;;;;;;;;;;;;24.55;39.38;102090.44;5029484;28;20004;-60
2022/08/12 09:08:57;;;;;;;;;;;;;;;24.59;39.12;102087.31;5029897;28;20015;-52
2022/08/12 09:14:06;;;;;;;;;;;;;;;24.67;38.84;102089.25;5029278;28;19967;-55
2022/08/12 09:16:32;;;;;;;;;;;;;;;24.72;38.63;102080.78;5030023;28;19925;-57
2022/08/12 09:18:57;;;;;;;;;;;;;;;24.75;38.53;102083.16;5028968;28;20311;-53
2022/08/12 09:21:23;;;;;;;;;;;;;;;24.78;38.44;102088.25;5033252;28;19922;-55
2022/08/12 09:23:49;;;;;;;;;;;;;;;24.83;38.48;102085.97;5030005;28;19964;-55
2022/08/12 09:26:17;;;;;;;;;;;;;;;24.89;38.34;102079.13;5032940;28;19924;-56
2022/08/12 09:28:46;;;;;;;;;;;;;;;24.94;38.03;102080.34;5034868;28;20020;-56
2022/08/12 09:31:11;;;;;;;;;;;;;;;24.99;37.90;102081.75;5029090;28;19917;-55
2022/08/12 09:33:37;;;;;;;;;;;;;;;25.01;37.62;102077.91;5031159;28;19928;-55
2022/08/12 09:36:03;;;;;;;;;;;;;;;25.05;37.45;102073.06;5029575;28;19932;-53
2022/08/12 09:38:29;;;;;;;;;;;;;;;25.07;37.45;102081.81;5031308;28;19955;-55
2022/08/12 09:40:55;;;;;;;;;;;;;;;25.09;37.24;102069.94;5030011;28;19957;-55
2022/08/12 09:46:04;;;;;;;;;;;;;;;25.14;37.14;102069.47;5033660;28;19935;-53
2022/08/12 09:48:32;;;;;;;;;;;;;;;25.20;36.81;102068.00;5027334;28;19928;-56
2022/08/12 09:50:58;;;;;;;;;;;;;;;25.23;36.73;102063.16;5029588;28;19924;-56
2022/08/12 09:53:24;;;;;;;;;;;;;;;25.26;36.47;102061.97;5030007;28;19917;-56
2022/08/12 09:55:54;;;;;;;;;;;;;;;25.31;36.58;102058.84;5029855;28;19913;-56
2022/08/12 09:58:24;;;;;;;;;;;;;;;25.34;36.21;102050.44;5028215;28;19932;-59
2022/08/12 10:00:53;;;;;;;;;;;;;;;25.38;36.19;102054.53;5026787;28;19918;-58
2022/08/12 10:03:20;;;;;;;;;;;;;;;25.40;36.13;102047.13;5029590;28;19940;-54
2022/08/12 10:05:47;;;;;;;;;;;;;;;25.43;35.65;102041.47;5030391;28;20011;-53
2022/08/12 10:08:15;;;;;;;;;;;;;;;25.46;35.85;102035.78;5025891;28;19928;-55
2022/08/12 10:13:43;;;;;;;;;;;;;;;25.52;35.54;102031.63;5029626;28;19920;-61
2022/08/12 10:16:10;;;;;;;;;;;;;;;25.59;35.46;102034.53;5029450;28;19917;-60
2022/08/12 10:18:36;;;;;;;;;;;;;;;25.64;35.31;102026.81;5032275;28;19920;-54
2022/08/12 10:21:09;;;;;;;;;;;;;;;25.67;35.03;102021.97;5027090;28;19921;-53
2022/08/12 10:23:35;;;;;;;;;;;;;;;25.71;35.17;102027.88;5010669;28;19921;-57
2022/08/12 10:31:28;;;;;;;;;;;;;;;25.89;34.79;102018.88;5030021;28;20267;-53
2022/08/12 10:33:53;;;;;;;;;;;;;;;25.92;34.61;102013.19;5027404;28;19984;-53
2022/08/12 10:36:18;;;;;;;;;;;;;;;25.95;34.48;102007.44;5027554;28;19933;-54
2022/08/12 10:38:46;;;;;;;;;;;;;;;25.99;34.60;102006.13;5029756;28;20319;-53
2022/08/12 10:43:56;;;;;;;;;;;;;;;26.03;34.54;102002.13;5026838;28;19963;-53
2022/08/12 10:46:21;;;;;;;;;;;;;;;26.06;34.55;102007.19;5032713;28;19925;-57
2022/08/12 10:48:47;;;;;;;;;;;;;;;26.09;34.29;102009.53;5028509;28;19932;-55
2022/08/12 10:51:17;;;;;;;;;;;;;;;26.14;34.34;102001.84;5031613;28;19983;-53
2022/08/12 10:53:44;;;;;;;;;;;;;;;26.19;34.07;102004.06;5028445;28;19917;-52
2022/08/12 10:56:10;;;;;;;;;;;;;;;26.23;34.37;102002.75;5026632;28;19929;-58
2022/08/12 10:58:39;;;;;;;;;;;;;;;26.27;34.19;101995.16;5024354;28;19929;-54
2022/08/12 11:01:05;;;;;;;;;;;;;;;26.29;33.98;102003.94;5029785;28;20481;-57
2022/08/12 11:03:33;;;;;;;;;;;;;;;26.33;33.92;102005.31;5032198;28;19925;-56
2022/08/12 11:05:59;;;;;;;;;;;;;;;26.38;34.15;101999.44;5017663;28;20379;-55
2022/08/12 11:08:26;;;;;;;;;;;;;;;26.41;33.78;101989.13;5031539;28;19933;-57
2022/08/12 11:10:52;;;;;;;;;;;;;;;26.45;33.95;101993.22;5036988;28;19932;-57
2022/08/12 11:13:18;;;;;;;;;;;;;;;26.51;33.88;101990.88;5034893;28;19979;-56
2022/08/12 11:15:44;;;;;;;;;;;;;;;26.56;33.82;101991.22;5035595;28;19916;-60
2022/08/12 11:18:10;;;;;;;;;;;;;;;26.61;33.58;101991.56;5031324;28;19921;-57
2022/08/12 11:20:35;;;;;;;;;;;;;;;26.68;33.63;101987.22;5035669;28;19975;-54
2022/08/12 11:23:01;;;;;;;;;;;;;;;26.74;33.55;101975.72;5028119;28;19921;-57
2022/08/12 11:25:26;;;;;;;;;;;;;;;26.80;33.27;101981.53;5039643;28;19968;-57
2022/08/12 11:27:51;;;;;;;;;;;;;;;26.84;33.16;101978.31;5031752;28;19932;-52
2022/08/12 11:30:17;;;;;;;;;;;;;;;26.87;33.11;101974.44;5037178;28;19925;-59
2022/08/12 11:32:42;;;;;;;;;;;;;;;26.89;33.40;101964.31;5032744;28;19947;-55
2022/08/12 11:35:08;;;;;;;;;;;;;;;26.95;33.09;101965.50;5034245;28;19932;-57
2022/08/12 11:37:36;;;;;;;;;;;;;;;27.00;33.01;101974.78;5038155;28;19932;-53
2022/08/12 11:40:01;;;;;;;;;;;;;;;27.06;32.80;101968.72;5027515;28;20381;-57
2022/08/12 11:42:27;;;;;;;;;;;;;;;27.11;32.90;101970.06;5035174;28;19932;-56
2022/08/12 11:44:52;;;;;;;;;;;;;;;27.16;32.68;101959.59;5032155;28;20011;-55
2022/08/12 11:47:17;;;;;;;;;;;;;;;27.22;32.72;101962.47;5036455;28;20434;-56
2022/08/12 11:49:43;;;;;;;;;;;;;;;27.26;32.77;101956.72;5030303;28;19921;-54
2022/08/12 11:52:08;;;;;;;;;;;;;;;27.27;32.91;101959.25;5032022;28;19928;-55
2022/08/12 11:54:34;;;;;;;;;;;;;;;27.28;32.61;101954.69;5033534;28;19921;-53
2022/08/12 11:57:00;;;;;;;;;;;;;;;27.31;32.82;101959.75;5029278;28;19917;-57
2022/08/12 11:59:25;;;;;;;;;;;;;;;27.32;32.81;101956.88;5040514;28;19913;-59
2022/08/12 12:01:51;;;;;;;;;;;;;;;27.36;32.60;101952.81;5032257;28;19944;-53
2022/08/12 12:04:16;;;;;;;;;;;;;;;27.39;32.49;101948.94;5034132;28;19918;-53
2022/08/12 12:06:42;;;;;;;;;;;;;;;27.43;32.66;101946.75;5030708;28;19921;-59
2022/08/12 12:09:07;;;;;;;;;;;;;;;27.48;32.68;101945.25;5025081;28;20307;-56
2022/08/12 12:11:33;;;;;;;;;;;;;;;27.56;32.42;101955.19;5034178;28;19970;-55
2022/08/12 12:13:58;;;;;;;;;;;;;;;27.60;32.63;101953.84;5027811;28;19925;-57
2022/08/12 12:16:23;;;;;;;;;;;;;;;27.63;32.25;101939.97;5035155;28;20084;-56
2022/08/12 12:18:49;;;;;;;;;;;;;;;27.68;32.17;101943.00;5021498;28;20006;-55
2022/08/12 12:21:15;;;;;;;;;;;;;;;27.73;32.35;101930.81;5038056;28;20295;-61
2022/08/12 12:23:40;;;;;;;;;;;;;;;27.78;32.07;101934.69;5028510;28;19980;-58
2022/08/12 12:26:06;;;;;;;;;;;;;;;27.86;31.83;101931.09;5031268;28;20328;-63
2022/08/12 12:28:32;;;;;;;;;;;;;;;27.94;31.80;101932.94;5034828;28;20376;-52
2022/08/12 12:30:57;;;;;;;;;;;;;;;28.01;31.83;101927.66;5027902;28;19971;-60
2022/08/12 12:33:23;;;;;;;;;;;;;;;28.07;31.89;101932.34;5031254;28;20355;-57
2022/08/12 12:35:48;;;;;;;;;;;;;;;28.12;31.71;101936.28;5033663;28;19921;-55
2022/08/12 12:38:15;;;;;;;;;;;;;;;28.20;31.54;101927.28;5016036;28;19921;-55
2022/08/12 12:40:42;;;;;;;;;;;;;;;28.25;31.43;101922.16;5028537;28;20650;-61
2022/08/12 12:43:07;;;;;;;;;;;;;;;28.26;31.33;101929.25;5028168;28;19921;-59
2022/08/12 12:45:34;;;;;;;;;;;;;;;28.25;31.45;101930.28;5009496;28;19975;-52
2022/08/12 12:48:03;;;;;;;;;;;;;;;28.21;31.35;101931.63;5031959;28;20339;-58
2022/08/12 12:50:30;;;;;;;;;;;;;;;28.18;31.69;101926.59;5030083;28;19956;-52
2022/08/12 12:52:59;;;;;;;;;;;;;;;28.23;31.74;101928.78;5031909;28;19917;-54
2022/08/12 12:55:24;;;;;;;;;;;;;;;28.27;31.33;101928.22;5032866;28;19913;-53
2022/08/12 12:57:50;;;;;;;;;;;;;;;28.32;31.42;101929.56;5028882;28;19917;-56
2022/08/12 13:00:17;;;;;;;;;;;;;;;28.35;31.30;101931.94;5028678;28;19921;-59
2022/08/12 13:02:54;;;;;;;;;;;;;;;28.36;31.25;101914.69;5030647;28;19923;-60
2022/08/12 13:05:35;;;;;;;;;;;;;;;28.42;31.37;101913.94;5032525;28;19990;-60
2022/08/12 13:08:02;;;;;;;;;;;;;;;28.52;31.06;101914.53;5030559;28;20327;-61
2022/08/12 13:10:29;;;;;;;;;;;;;;;28.62;31.08;101913.47;5036584;28;19917;-62
2022/08/12 13:12:55;;;;;;;;;;;;;;;28.67;31.25;101916.47;5028542;28;19971;-58
2022/08/12 13:15:20;;;;;;;;;;;;;;;28.67;31.11;101916.47;5028957;28;19956;-58
2022/08/12 13:17:48;;;;;;;;;;;;;;;28.67;31.08;101921.88;5028717;28;19925;-62
2022/08/12 13:20:14;;;;;;;;;;;;;;;28.66;30.79;101909.41;5028204;28;19921;-63
2022/08/12 13:22:39;;;;;;;;;;;;;;;28.68;30.76;101912.75;5032652;28;19996;-58
2022/08/12 13:25:05;;;;;;;;;;;;;;;28.71;31.18;101909.69;5026484;28;19929;-58
2022/08/12 13:27:34;;;;;;;;;;;;;;;28.72;31.12;101905.94;5028993;28;19933;-57
2022/08/12 13:30:02;;;;;;;;;;;;;;;28.72;31.13;101905.94;5030193;28;20011;-61
2022/08/12 13:32:28;;;;;;;;;;;;;;;28.76;31.05;101915.44;5025890;28;20857;-61
2022/08/12 13:34:53;;;;;;;;;;;;;;;28.84;30.82;101903.69;5026066;28;19931;-57
2022/08/12 13:37:25;;;;;;;;;;;;;;;28.94;31.02;101906.16;5030844;28;19921;-61
2022/08/12 13:39:51;;;;;;;;;;;;;;;29.01;30.50;101902.53;5015827;28;19913;-56
2022/08/12 13:42:17;;;;;;;;;;;;;;;29.08;30.45;101901.78;5007883;28;19921;-59
2022/08/12 13:44:42;;;;;;;;;;;;;;;29.10;30.37;101900.59;5033250;28;19928;-60
2022/08/12 13:47:08;;;;;;;;;;;;;;;29.15;30.75;101903.56;5031735;28;19920;-61
2022/08/12 13:49:33;;;;;;;;;;;;;;;29.17;30.38;101901.50;5027245;28;19925;-56
2022/08/12 13:51:59;;;;;;;;;;;;;;;29.14;30.40;101896.47;5012981;28;20332;-61
2022/08/12 13:54:24;;;;;;;;;;;;;;;29.15;30.69;101898.13;5008045;28;19937;-60
2022/08/12 13:56:49;;;;;;;;;;;;;;;29.22;30.61;101890.09;5019333;28;19921;-66
2022/08/12 13:59:16;;;;;;;;;;;;;;;29.33;30.54;101888.81;5019380;28;19960;-55
2022/08/12 14:01:41;;;;;;;;;;;;;;;29.44;30.49;101880.25;5014540;28;19920;-57
2022/08/12 14:04:08;;;;;;;;;;;;;;;29.50;30.35;101889.50;5023412;28;20793;-66
2022/08/12 14:06:33;;;;;;;;;;;;;;;29.53;30.29;101891.00;5016601;28;19921;-55
2022/08/12 14:08:59;;;;;;;;;;;;;;;29.52;30.02;101881.19;5023196;28;21769;-56
2022/08/12 14:11:26;;;;;;;;;;;;;;;29.50;30.38;101882.22;5001368;28;22063;-55
2022/08/12 14:13:51;;;;;;;;;;;;;;;29.49;30.03;101882.41;5023273;28;20383;-59
2022/08/12 14:16:17;;;;;;;;;;;;;;;29.45;29.88;101884.66;5019468;28;19928;-58
2022/08/12 14:18:42;;;;;;;;;;;;;;;29.42;30.23;101887.72;5021644;28;19928;-56
2022/08/12 14:21:10;;;;;;;;;;;;;;;29.40;30.11;101881.66;5017075;28;19932;-57
2022/08/12 14:23:41;;;;;;;;;;;;;;;29.37;30.41;101890.16;5020841;28;20447;-58